Davenport, IA

8:51 PM CDT on August 23, 2016 (GMT -0500)
Southeast Davenport | | Change Station

Elev 659 ft 41.54 °N, 90.56 °W | Updated 37 seconds ago

Overcast
Overcast
74.1 °F
Feels Like 72 °F
N
1.3
Wind Variable Wind from South
Gusts 3.4 mph

Today
High -- | Low -- °F
--% Chance of Precip.
Yesterday
High -- | Low -- °F
Precip. -- in
Pressure 30.02 in
Visibility 10.0 miles
Clouds Overcast 1800 ft
Heat Index 72 °F
Dew Point 72 °F
Humidity 92%
Rainfall 0.00 in
Snow Depth Not available.
6:19 AM 7:48 PM
Waning Gibbous, 62% visible
METAR KDVN 240052Z AUTO 16013G21KT 10SM OVC018 23/19 A3003 RMK AO2 SLP165 T02330194
Pressure 30.02 in
Visibility 10.0 miles
Clouds Overcast 1800 ft
Heat Index 72 °F
Dew Point 72 °F
Humidity 92%
Rainfall 0.00 in
Snow Depth Not available.
6:19 AM 7:48 PM
Waning Gibbous, 62% visible
METAR KDVN 240052Z AUTO 16013G21KT 10SM OVC018 23/19 A3003 RMK AO2 SLP165 T02330194

10-Day Weather Forecast

Almanac

Astronomy

Aug. 23, 2016 Rise Set
Actual Time
Civil Twilight
Nautical Twilight
Astronomical Twilight
Moon
Length of Visible Light
Length of Day
Tomorrow will be .
, % of the Moon is Illuminated

Today's Extremes

State Highs State Lows

Community

WunderPhotos

Upload Photos

1,934,520 photos uploaded!

WunderBlog® & News

Nearby

Air Quality

  Air Quality AQ Index Pollutant
Not available.

Snow Depth

Station Depth Elevation

Earthquake Activity

City Distance Mag. Time & Date
Minimum magnitude displayed is 2.5.

Coastal Water Temperatures

Place Temperature

Stations

Nearby Weather Stations

Station Location Temp. Windchill Dew Point Humidity Wind Precip. Elev Updated Type
                   

Watches & Warnings

There are currently no watches in effect.